sensor_id;sensor_type;location;lat;lon;timestamp;P1;durP1;ratioP1;P2;durP2;ratioP2
22336;SDS011;14992;50.844;4.418;2022-07-10T00:02:20;8.95;;;1.85;;
22336;SDS011;14992;50.844;4.418;2022-07-10T00:05:09;9.05;;;2.10;;
22336;SDS011;14992;50.844;4.418;2022-07-10T00:08:07;5.88;;;2.08;;
22336;SDS011;14992;50.844;4.418;2022-07-10T00:10:48;10.93;;;2.40;;
22336;SDS011;14992;50.844;4.418;2022-07-10T00:13:44;9.65;;;2.30;;
22336;SDS011;14992;50.844;4.418;2022-07-10T00:16:26;13.43;;;2.63;;
22336;SDS011;14992;50.844;4.418;2022-07-10T00:19:20;8.07;;;2.33;;
22336;SDS011;14992;50.844;4.418;2022-07-10T00:22:02;10.48;;;2.65;;
22336;SDS011;14992;50.844;4.418;2022-07-10T00:24:59;12.70;;;3.17;;
22336;SDS011;14992;50.844;4.418;2022-07-10T00:27:34;7.88;;;2.80;;
22336;SDS011;14992;50.844;4.418;2022-07-10T00:30:29;9.48;;;3.03;;
22336;SDS011;14992;50.844;4.418;2022-07-10T00:33:11;13.80;;;3.42;;
22336;SDS011;14992;50.844;4.418;2022-07-10T00:35:59;11.05;;;3.25;;
22336;SDS011;14992;50.844;4.418;2022-07-10T00:38:40;10.30;;;2.25;;
22336;SDS011;14992;50.844;4.418;2022-07-10T00:41:31;10.68;;;2.40;;
22336;SDS011;14992;50.844;4.418;2022-07-10T00:44:12;12.18;;;3.25;;
22336;SDS011;14992;50.844;4.418;2022-07-10T00:47:02;9.05;;;2.72;;
22336;SDS011;14992;50.844;4.418;2022-07-10T00:49:44;7.72;;;1.90;;
22336;SDS011;14992;50.844;4.418;2022-07-10T00:52:32;8.65;;;2.55;;
22336;SDS011;14992;50.844;4.418;2022-07-10T00:55:29;8.88;;;2.13;;
22336;SDS011;14992;50.844;4.418;2022-07-10T00:58:28;7.45;;;1.60;;
22336;SDS011;14992;50.844;4.418;2022-07-10T01:01:10;5.45;;;1.50;;
22336;SDS011;14992;50.844;4.418;2022-07-10T01:04:05;9.90;;;2.20;;
22336;SDS011;14992;50.844;4.418;2022-07-10T01:06:47;7.72;;;1.80;;
22336;SDS011;14992;50.844;4.418;2022-07-10T01:09:42;11.90;;;2.58;;
22336;SDS011;14992;50.844;4.418;2022-07-10T01:12:24;11.25;;;2.40;;
22336;SDS011;14992;50.844;4.418;2022-07-10T01:15:21;7.72;;;1.67;;
22336;SDS011;14992;50.844;4.418;2022-07-10T01:18:10;6.68;;;1.80;;
22336;SDS011;14992;50.844;4.418;2022-07-10T01:21:00;5.72;;;2.05;;
22336;SDS011;14992;50.844;4.418;2022-07-10T01:23:42;7.10;;;1.83;;
22336;SDS011;14992;50.844;4.418;2022-07-10T01:26:30;6.20;;;1.70;;
22336;SDS011;14992;50.844;4.418;2022-07-10T01:29:15;8.65;;;1.88;;
22336;SDS011;14992;50.844;4.418;2022-07-10T01:32:05;11.88;;;1.77;;
22336;SDS011;14992;50.844;4.418;2022-07-10T01:34:53;6.57;;;2.10;;
22336;SDS011;14992;50.844;4.418;2022-07-10T01:37:36;7.50;;;1.92;;
22336;SDS011;14992;50.844;4.418;2022-07-10T01:40:24;5.38;;;1.50;;
22336;SDS011;14992;50.844;4.418;2022-07-10T01:43:19;10.43;;;2.28;;
22336;SDS011;14992;50.844;4.418;2022-07-10T01:46:01;6.80;;;1.85;;
22336;SDS011;14992;50.844;4.418;2022-07-10T01:48:57;12.55;;;2.25;;
22336;SDS011;14992;50.844;4.418;2022-07-10T01:51:39;11.32;;;2.10;;
22336;SDS011;14992;50.844;4.418;2022-07-10T01:54:35;7.68;;;1.98;;
22336;SDS011;14992;50.844;4.418;2022-07-10T01:57:17;8.10;;;1.70;;
22336;SDS011;14992;50.844;4.418;2022-07-10T02:00:12;6.65;;;1.58;;
22336;SDS011;14992;50.844;4.418;2022-07-10T02:02:55;14.95;;;2.47;;
22336;SDS011;14992;50.844;4.418;2022-07-10T02:05:56;8.02;;;1.88;;
22336;SDS011;14992;50.844;4.418;2022-07-10T02:08:44;9.88;;;1.77;;
22336;SDS011;14992;50.844;4.418;2022-07-10T02:11:27;6.97;;;1.60;;
22336;SDS011;14992;50.844;4.418;2022-07-10T02:14:15;7.10;;;2.03;;
22336;SDS011;14992;50.844;4.418;2022-07-10T02:16:58;7.75;;;1.90;;
22336;SDS011;14992;50.844;4.418;2022-07-10T02:19:46;8.57;;;2.10;;
22336;SDS011;14992;50.844;4.418;2022-07-10T02:22:28;8.77;;;1.83;;
22336;SDS011;14992;50.844;4.418;2022-07-10T02:25:16;8.63;;;1.60;;
22336;SDS011;14992;50.844;4.418;2022-07-10T02:28:13;11.15;;;2.20;;
22336;SDS011;14992;50.844;4.418;2022-07-10T02:30:48;5.72;;;1.80;;
22336;SDS011;14992;50.844;4.418;2022-07-10T02:33:42;11.32;;;1.85;;
22336;SDS011;14992;50.844;4.418;2022-07-10T02:36:24;7.32;;;1.67;;
22336;SDS011;14992;50.844;4.418;2022-07-10T02:39:19;7.30;;;2.00;;
22336;SDS011;14992;50.844;4.418;2022-07-10T02:42:01;12.55;;;2.15;;
22336;SDS011;14992;50.844;4.418;2022-07-10T02:44:58;9.70;;;2.65;;
22336;SDS011;14992;50.844;4.418;2022-07-10T02:47:40;4.40;;;1.77;;
22336;SDS011;14992;50.844;4.418;2022-07-10T02:50:28;8.25;;;2.33;;
22336;SDS011;14992;50.844;4.418;2022-07-10T02:53:23;6.97;;;1.80;;
22336;SDS011;14992;50.844;4.418;2022-07-10T02:56:18;10.55;;;2.47;;
22336;SDS011;14992;50.844;4.418;2022-07-10T02:59:06;6.10;;;1.88;;
22336;SDS011;14992;50.844;4.418;2022-07-10T03:01:49;9.02;;;2.30;;
22336;SDS011;14992;50.844;4.418;2022-07-10T03:04:44;8.63;;;2.03;;
22336;SDS011;14992;50.844;4.418;2022-07-10T03:07:26;7.90;;;2.10;;
22336;SDS011;14992;50.844;4.418;2022-07-10T03:10:21;6.68;;;1.90;;
22336;SDS011;14992;50.844;4.418;2022-07-10T03:13:03;6.80;;;1.92;;
22336;SDS011;14992;50.844;4.418;2022-07-10T03:15:53;9.88;;;1.95;;
22336;SDS011;14992;50.844;4.418;2022-07-10T03:18:37;9.93;;;1.95;;
22336;SDS011;14992;50.844;4.418;2022-07-10T03:21:25;5.82;;;1.98;;
22336;SDS011;14992;50.844;4.418;2022-07-10T03:24:07;9.48;;;2.13;;
22336;SDS011;14992;50.844;4.418;2022-07-10T03:26:55;8.25;;;1.80;;
22336;SDS011;14992;50.844;4.418;2022-07-10T03:29:38;11.75;;;2.28;;
22336;SDS011;14992;50.844;4.418;2022-07-10T03:32:26;7.63;;;1.85;;
22336;SDS011;14992;50.844;4.418;2022-07-10T03:35:09;9.20;;;1.67;;
22336;SDS011;14992;50.844;4.418;2022-07-10T03:38:04;8.57;;;2.30;;
22336;SDS011;14992;50.844;4.418;2022-07-10T03:40:46;8.02;;;2.10;;
22336;SDS011;14992;50.844;4.418;2022-07-10T03:43:41;7.20;;;1.70;;
22336;SDS011;14992;50.844;4.418;2022-07-10T03:46:23;8.75;;;1.80;;
22336;SDS011;14992;50.844;4.418;2022-07-10T03:49:18;7.00;;;2.20;;
22336;SDS011;14992;50.844;4.418;2022-07-10T03:52:08;7.90;;;1.70;;
22336;SDS011;14992;50.844;4.418;2022-07-10T03:55:04;9.30;;;2.03;;
22336;SDS011;14992;50.844;4.418;2022-07-10T03:57:46;5.25;;;1.55;;
22336;SDS011;14992;50.844;4.418;2022-07-10T04:00:43;5.85;;;1.88;;
22336;SDS011;14992;50.844;4.418;2022-07-10T04:03:25;10.23;;;2.10;;
22336;SDS011;14992;50.844;4.418;2022-07-10T04:06:13;12.75;;;1.98;;
22336;SDS011;14992;50.844;4.418;2022-07-10T04:09:10;7.38;;;1.67;;
22336;SDS011;14992;50.844;4.418;2022-07-10T04:11:52;5.20;;;1.50;;
22336;SDS011;14992;50.844;4.418;2022-07-10T04:14:46;5.43;;;1.70;;
22336;SDS011;14992;50.844;4.418;2022-07-10T04:17:29;6.65;;;1.52;;
22336;SDS011;14992;50.844;4.418;2022-07-10T04:20:23;4.97;;;1.83;;
22336;SDS011;14992;50.844;4.418;2022-07-10T04:23:05;6.80;;;1.65;;
22336;SDS011;14992;50.844;4.418;2022-07-10T04:25:54;7.43;;;1.80;;
22336;SDS011;14992;50.844;4.418;2022-07-10T04:28:37;9.60;;;2.05;;
22336;SDS011;14992;50.844;4.418;2022-07-10T04:31:25;8.50;;;2.08;;
22336;SDS011;14992;50.844;4.418;2022-07-10T04:34:07;5.75;;;1.90;;
22336;SDS011;14992;50.844;4.418;2022-07-10T04:36:55;9.23;;;1.75;;
22336;SDS011;14992;50.844;4.418;2022-07-10T04:39:37;9.07;;;2.13;;
22336;SDS011;14992;50.844;4.418;2022-07-10T04:42:27;8.43;;;2.15;;
22336;SDS011;14992;50.844;4.418;2022-07-10T04:45:09;4.28;;;1.60;;
22336;SDS011;14992;50.844;4.418;2022-07-10T04:48:05;6.43;;;1.65;;
22336;SDS011;14992;50.844;4.418;2022-07-10T04:50:47;10.02;;;2.33;;
22336;SDS011;14992;50.844;4.418;2022-07-10T04:53:41;9.10;;;2.33;;
22336;SDS011;14992;50.844;4.418;2022-07-10T04:56:23;13.18;;;2.13;;
22336;SDS011;14992;50.844;4.418;2022-07-10T04:59:19;8.38;;;1.85;;
22336;SDS011;14992;50.844;4.418;2022-07-10T05:02:01;9.82;;;2.60;;
22336;SDS011;14992;50.844;4.418;2022-07-10T05:04:55;8.65;;;1.95;;
22336;SDS011;14992;50.844;4.418;2022-07-10T05:07:38;6.63;;;1.70;;
22336;SDS011;14992;50.844;4.418;2022-07-10T05:10:32;7.40;;;2.00;;
22336;SDS011;14992;50.844;4.418;2022-07-10T05:13:14;9.23;;;1.95;;
22336;SDS011;14992;50.844;4.418;2022-07-10T05:16:04;9.88;;;2.05;;
22336;SDS011;14992;50.844;4.418;2022-07-10T05:18:58;6.15;;;1.90;;
22336;SDS011;14992;50.844;4.418;2022-07-10T05:21:40;8.43;;;1.83;;
22336;SDS011;14992;50.844;4.418;2022-07-10T05:24:28;5.80;;;1.88;;
22336;SDS011;14992;50.844;4.418;2022-07-10T05:27:10;8.70;;;1.92;;
22336;SDS011;14992;50.844;4.418;2022-07-10T05:29:59;11.07;;;2.15;;
22336;SDS011;14992;50.844;4.418;2022-07-10T05:32:56;8.13;;;2.00;;
22336;SDS011;14992;50.844;4.418;2022-07-10T05:35:38;10.10;;;2.78;;
22336;SDS011;14992;50.844;4.418;2022-07-10T05:38:32;7.10;;;1.95;;
22336;SDS011;14992;50.844;4.418;2022-07-10T05:41:14;45.45;;;4.95;;
22336;SDS011;14992;50.844;4.418;2022-07-10T05:44:09;36.35;;;4.25;;
22336;SDS011;14992;50.844;4.418;2022-07-10T05:46:52;6.05;;;1.80;;
22336;SDS011;14992;50.844;4.418;2022-07-10T05:49:49;7.10;;;2.20;;
22336;SDS011;14992;50.844;4.418;2022-07-10T05:52:31;12.60;;;2.90;;
22336;SDS011;14992;50.844;4.418;2022-07-10T05:55:25;8.75;;;2.30;;
22336;SDS011;14992;50.844;4.418;2022-07-10T05:58:07;9.80;;;2.00;;
22336;SDS011;14992;50.844;4.418;2022-07-10T06:00:55;10.13;;;2.22;;
22336;SDS011;14992;50.844;4.418;2022-07-10T06:03:37;5.40;;;2.00;;
22336;SDS011;14992;50.844;4.418;2022-07-10T06:06:27;9.88;;;2.30;;
22336;SDS011;14992;50.844;4.418;2022-07-10T06:09:09;11.35;;;2.28;;
22336;SDS011;14992;50.844;4.418;2022-07-10T06:11:57;7.22;;;1.90;;
22336;SDS011;14992;50.844;4.418;2022-07-10T06:14:39;11.60;;;2.55;;
22336;SDS011;14992;50.844;4.418;2022-07-10T06:17:27;7.25;;;1.98;;
22336;SDS011;14992;50.844;4.418;2022-07-10T06:20:09;8.27;;;1.90;;
22336;SDS011;14992;50.844;4.418;2022-07-10T06:23:06;13.32;;;2.10;;
22336;SDS011;14992;50.844;4.418;2022-07-10T06:25:48;12.65;;;2.25;;
22336;SDS011;14992;50.844;4.418;2022-07-10T06:28:42;6.35;;;1.85;;
22336;SDS011;14992;50.844;4.418;2022-07-10T06:31:24;5.25;;;1.40;;
22336;SDS011;14992;50.844;4.418;2022-07-10T06:34:19;10.52;;;1.30;;
22336;SDS011;14992;50.844;4.418;2022-07-10T06:37:01;7.80;;;1.60;;
22336;SDS011;14992;50.844;4.418;2022-07-10T06:39:58;9.52;;;2.08;;
22336;SDS011;14992;50.844;4.418;2022-07-10T06:42:40;6.63;;;2.10;;
22336;SDS011;14992;50.844;4.418;2022-07-10T06:45:29;7.50;;;1.70;;
22336;SDS011;14992;50.844;4.418;2022-07-10T06:48:11;8.15;;;1.35;;
22336;SDS011;14992;50.844;4.418;2022-07-10T06:50:58;5.82;;;1.60;;
22336;SDS011;14992;50.844;4.418;2022-07-10T06:53:57;6.35;;;1.50;;
22336;SDS011;14992;50.844;4.418;2022-07-10T06:56:54;8.05;;;1.42;;
22336;SDS011;14992;50.844;4.418;2022-07-10T06:59:36;6.43;;;1.38;;
22336;SDS011;14992;50.844;4.418;2022-07-10T07:02:24;9.95;;;1.88;;
22336;SDS011;14992;50.844;4.418;2022-07-10T07:05:06;8.45;;;1.70;;
22336;SDS011;14992;50.844;4.418;2022-07-10T07:08:02;12.35;;;2.05;;
22336;SDS011;14992;50.844;4.418;2022-07-10T07:10:47;6.90;;;1.30;;
22336;SDS011;14992;50.844;4.418;2022-07-10T07:13:43;8.95;;;1.60;;
22336;SDS011;14992;50.844;4.418;2022-07-10T07:16:25;6.90;;;1.33;;
22336;SDS011;14992;50.844;4.418;2022-07-10T07:19:27;8.40;;;1.40;;
22336;SDS011;14992;50.844;4.418;2022-07-10T07:22:05;6.45;;;1.95;;
22336;SDS011;14992;50.844;4.418;2022-07-10T07:25:17;6.88;;;2.17;;
22336;SDS011;14992;50.844;4.418;2022-07-10T07:27:59;11.25;;;1.50;;
22336;SDS011;14992;50.844;4.418;2022-07-10T07:30:49;4.75;;;1.40;;
22336;SDS011;14992;50.844;4.418;2022-07-10T07:33:53;8.85;;;2.03;;
22336;SDS011;14992;50.844;4.418;2022-07-10T07:36:35;6.38;;;1.65;;
22336;SDS011;14992;50.844;4.418;2022-07-10T07:39:30;9.75;;;1.48;;
22336;SDS011;14992;50.844;4.418;2022-07-10T07:42:12;5.80;;;1.40;;
22336;SDS011;14992;50.844;4.418;2022-07-10T07:45:08;8.63;;;1.60;;
22336;SDS011;14992;50.844;4.418;2022-07-10T07:47:52;5.18;;;1.50;;
22336;SDS011;14992;50.844;4.418;2022-07-10T07:50:42;6.10;;;1.45;;
22336;SDS011;14992;50.844;4.418;2022-07-10T07:53:30;6.90;;;2.03;;
22336;SDS011;14992;50.844;4.418;2022-07-10T07:56:25;8.68;;;1.80;;
22336;SDS011;14992;50.844;4.418;2022-07-10T07:59:07;10.02;;;2.38;;
22336;SDS011;14992;50.844;4.418;2022-07-10T08:01:55;9.75;;;1.85;;
22336;SDS011;14992;50.844;4.418;2022-07-10T08:04:38;9.65;;;2.45;;
22336;SDS011;14992;50.844;4.418;2022-07-10T08:07:32;6.78;;;1.80;;
22336;SDS011;14992;50.844;4.418;2022-07-10T08:10:22;9.00;;;2.40;;
22336;SDS011;14992;50.844;4.418;2022-07-10T08:13:23;9.25;;;1.92;;
22336;SDS011;14992;50.844;4.418;2022-07-10T08:16:05;6.13;;;1.60;;
22336;SDS011;14992;50.844;4.418;2022-07-10T08:19:00;9.07;;;2.38;;
22336;SDS011;14992;50.844;4.418;2022-07-10T08:21:43;7.60;;;1.77;;
22336;SDS011;14992;50.844;4.418;2022-07-10T08:24:39;7.75;;;1.80;;
22336;SDS011;14992;50.844;4.418;2022-07-10T08:27:20;6.82;;;1.98;;
22336;SDS011;14992;50.844;4.418;2022-07-10T08:30:09;7.68;;;2.25;;
22336;SDS011;14992;50.844;4.418;2022-07-10T08:33:04;9.55;;;2.35;;
22336;SDS011;14992;50.844;4.418;2022-07-10T08:35:40;7.50;;;2.05;;
22336;SDS011;14992;50.844;4.418;2022-07-10T08:38:56;9.98;;;2.17;;
22336;SDS011;14992;50.844;4.418;2022-07-10T08:41:39;10.00;;;2.03;;
22336;SDS011;14992;50.844;4.418;2022-07-10T08:44:29;7.53;;;1.80;;
22336;SDS011;14992;50.844;4.418;2022-07-10T08:47:12;8.13;;;1.83;;
22336;SDS011;14992;50.844;4.418;2022-07-10T08:50:10;7.72;;;2.00;;
22336;SDS011;14992;50.844;4.418;2022-07-10T08:53:06;6.55;;;1.88;;
22336;SDS011;14992;50.844;4.418;2022-07-10T08:56:04;7.38;;;2.00;;
22336;SDS011;14992;50.844;4.418;2022-07-10T08:58:47;6.97;;;1.90;;
22336;SDS011;14992;50.844;4.418;2022-07-10T09:01:36;7.20;;;1.67;;
22336;SDS011;14992;50.844;4.418;2022-07-10T09:04:20;8.82;;;1.80;;
22336;SDS011;14992;50.844;4.418;2022-07-10T09:07:09;5.85;;;1.50;;
22336;SDS011;14992;50.844;4.418;2022-07-10T09:09:52;9.75;;;1.92;;
22336;SDS011;14992;50.844;4.418;2022-07-10T09:12:50;8.35;;;2.03;;
22336;SDS011;14992;50.844;4.418;2022-07-10T09:15:36;7.03;;;1.73;;
22336;SDS011;14992;50.844;4.418;2022-07-10T09:18:31;4.97;;;1.40;;
22336;SDS011;14992;50.844;4.418;2022-07-10T09:21:12;6.93;;;1.90;;
22336;SDS011;14992;50.844;4.418;2022-07-10T09:24:08;7.57;;;1.70;;
22336;SDS011;14992;50.844;4.418;2022-07-10T09:26:58;6.97;;;1.73;;
22336;SDS011;14992;50.844;4.418;2022-07-10T09:29:56;8.32;;;1.98;;
22336;SDS011;14992;50.844;4.418;2022-07-10T09:32:32;7.60;;;2.03;;
22336;SDS011;14992;50.844;4.418;2022-07-10T09:35:27;7.65;;;1.95;;
22336;SDS011;14992;50.844;4.418;2022-07-10T09:38:25;8.52;;;2.10;;
22336;SDS011;14992;50.844;4.418;2022-07-10T09:41:14;9.75;;;2.05;;
22336;SDS011;14992;50.844;4.418;2022-07-10T09:44:04;8.95;;;2.17;;
22336;SDS011;14992;50.844;4.418;2022-07-10T09:46:49;5.45;;;1.85;;
22336;SDS011;14992;50.844;4.418;2022-07-10T09:49:38;10.70;;;2.42;;
22336;SDS011;14992;50.844;4.418;2022-07-10T09:52:26;5.80;;;1.98;;
22336;SDS011;14992;50.844;4.418;2022-07-10T09:55:26;7.18;;;2.30;;
22336;SDS011;14992;50.844;4.418;2022-07-10T09:58:22;8.02;;;2.20;;
22336;SDS011;14992;50.844;4.418;2022-07-10T10:01:03;9.85;;;2.53;;
22336;SDS011;14992;50.844;4.418;2022-07-10T10:04:01;6.13;;;1.70;;
22336;SDS011;14992;50.844;4.418;2022-07-10T10:06:46;6.90;;;2.13;;
22336;SDS011;14992;50.844;4.418;2022-07-10T10:09:45;7.90;;;2.33;;
22336;SDS011;14992;50.844;4.418;2022-07-10T10:12:34;8.23;;;2.15;;
22336;SDS011;14992;50.844;4.418;2022-07-10T10:15:33;7.78;;;2.40;;
22336;SDS011;14992;50.844;4.418;2022-07-10T10:18:16;8.82;;;2.45;;
22336;SDS011;14992;50.844;4.418;2022-07-10T10:21:07;7.72;;;2.17;;
22336;SDS011;14992;50.844;4.418;2022-07-10T10:23:48;8.40;;;1.95;;
22336;SDS011;14992;50.844;4.418;2022-07-10T10:26:37;5.88;;;2.17;;
22336;SDS011;14992;50.844;4.418;2022-07-10T10:29:19;6.00;;;2.33;;
22336;SDS011;14992;50.844;4.418;2022-07-10T10:32:07;12.52;;;2.92;;
22336;SDS011;14992;50.844;4.418;2022-07-10T10:34:50;8.00;;;2.47;;
22336;SDS011;14992;50.844;4.418;2022-07-10T10:37:39;5.53;;;2.17;;
22336;SDS011;14992;50.844;4.418;2022-07-10T10:40:32;6.40;;;2.58;;
22336;SDS011;14992;50.844;4.418;2022-07-10T10:43:27;7.22;;;2.42;;
22336;SDS011;14992;50.844;4.418;2022-07-10T10:46:23;5.00;;;2.17;;
22336;SDS011;14992;50.844;4.418;2022-07-10T10:49:19;5.55;;;2.45;;
22336;SDS011;14992;50.844;4.418;2022-07-10T10:52:01;7.65;;;3.03;;
22336;SDS011;14992;50.844;4.418;2022-07-10T10:55:06;10.10;;;2.47;;
22336;SDS011;14992;50.844;4.418;2022-07-10T10:57:49;8.40;;;2.50;;
22336;SDS011;14992;50.844;4.418;2022-07-10T11:00:39;9.05;;;2.50;;
22336;SDS011;14992;50.844;4.418;2022-07-10T11:03:21;7.55;;;2.75;;
22336;SDS011;14992;50.844;4.418;2022-07-10T11:06:12;6.80;;;2.80;;
22336;SDS011;14992;50.844;4.418;2022-07-10T11:08:54;6.60;;;2.35;;
22336;SDS011;14992;50.844;4.418;2022-07-10T11:11:58;6.28;;;2.45;;
22336;SDS011;14992;50.844;4.418;2022-07-10T11:14:44;9.13;;;3.17;;
22336;SDS011;14992;50.844;4.418;2022-07-10T11:17:33;7.05;;;2.50;;
22336;SDS011;14992;50.844;4.418;2022-07-10T11:20:15;7.88;;;2.75;;
22336;SDS011;14992;50.844;4.418;2022-07-10T11:26:29;7.63;;;2.85;;
22336;SDS011;14992;50.844;4.418;2022-07-10T11:29:32;9.23;;;2.47;;
22336;SDS011;14992;50.844;4.418;2022-07-10T11:32:26;11.02;;;2.85;;
22336;SDS011;14992;50.844;4.418;2022-07-10T11:35:25;5.22;;;2.33;;
22336;SDS011;14992;50.844;4.418;2022-07-10T11:38:17;6.30;;;2.30;;
22336;SDS011;14992;50.844;4.418;2022-07-10T11:41:00;6.22;;;2.65;;
22336;SDS011;14992;50.844;4.418;2022-07-10T11:43:49;8.95;;;2.38;;
22336;SDS011;14992;50.844;4.418;2022-07-10T11:46:34;7.40;;;2.47;;
22336;SDS011;14992;50.844;4.418;2022-07-10T11:49:24;6.22;;;2.17;;
22336;SDS011;14992;50.844;4.418;2022-07-10T11:52:13;5.55;;;2.05;;
22336;SDS011;14992;50.844;4.418;2022-07-10T11:55:13;5.95;;;2.22;;
22336;SDS011;14992;50.844;4.418;2022-07-10T11:58:15;5.82;;;2.13;;
22336;SDS011;14992;50.844;4.418;2022-07-10T12:00:57;6.18;;;2.00;;
22336;SDS011;14992;50.844;4.418;2022-07-10T12:03:57;6.68;;;3.03;;
22336;SDS011;14992;50.844;4.418;2022-07-10T12:06:40;6.35;;;2.17;;
22336;SDS011;14992;50.844;4.418;2022-07-10T12:09:36;5.15;;;1.70;;
22336;SDS011;14992;50.844;4.418;2022-07-10T12:12:12;7.63;;;2.20;;
22336;SDS011;14992;50.844;4.418;2022-07-10T12:15:07;6.68;;;2.05;;
22336;SDS011;14992;50.844;4.418;2022-07-10T12:17:49;5.15;;;1.95;;
22336;SDS011;14992;50.844;4.418;2022-07-10T12:20:40;9.30;;;2.08;;
22336;SDS011;14992;50.844;4.418;2022-07-10T12:23:22;7.57;;;2.25;;
22336;SDS011;14992;50.844;4.418;2022-07-10T12:26:11;5.80;;;2.30;;
22336;SDS011;14992;50.844;4.418;2022-07-10T12:28:54;7.32;;;2.38;;
22336;SDS011;14992;50.844;4.418;2022-07-10T12:31:44;6.93;;;2.00;;
22336;SDS011;14992;50.844;4.418;2022-07-10T12:34:41;6.40;;;1.50;;
22336;SDS011;14992;50.844;4.418;2022-07-10T12:37:27;6.75;;;1.60;;
22336;SDS011;14992;50.844;4.418;2022-07-10T12:40:32;7.85;;;1.70;;
22336;SDS011;14992;50.844;4.418;2022-07-10T12:43:23;8.15;;;1.98;;
22336;SDS011;14992;50.844;4.418;2022-07-10T12:46:14;6.73;;;1.80;;
22336;SDS011;14992;50.844;4.418;2022-07-10T12:49:02;4.65;;;1.52;;
22336;SDS011;14992;50.844;4.418;2022-07-10T12:51:52;6.72;;;1.88;;
22336;SDS011;14992;50.844;4.418;2022-07-10T12:55:09;5.28;;;1.60;;
22336;SDS011;14992;50.844;4.418;2022-07-10T12:58:08;6.85;;;1.70;;
22336;SDS011;14992;50.844;4.418;2022-07-10T13:00:45;4.80;;;1.58;;
22336;SDS011;14992;50.844;4.418;2022-07-10T13:03:42;5.93;;;1.73;;
22336;SDS011;14992;50.844;4.418;2022-07-10T13:06:27;5.70;;;1.52;;
22336;SDS011;14992;50.844;4.418;2022-07-10T13:09:26;6.00;;;1.48;;
22336;SDS011;14992;50.844;4.418;2022-07-10T13:12:09;6.53;;;2.08;;
22336;SDS011;14992;50.844;4.418;2022-07-10T13:15:04;5.47;;;1.33;;
22336;SDS011;14992;50.844;4.418;2022-07-10T13:18:05;4.93;;;1.30;;
22336;SDS011;14992;50.844;4.418;2022-07-10T13:20:47;5.68;;;1.50;;
22336;SDS011;14992;50.844;4.418;2022-07-10T13:23:45;6.82;;;1.70;;
22336;SDS011;14992;50.844;4.418;2022-07-10T13:26:28;5.00;;;1.48;;
22336;SDS011;14992;50.844;4.418;2022-07-10T13:29:18;6.55;;;1.95;;
22336;SDS011;14992;50.844;4.418;2022-07-10T13:32:00;5.90;;;1.50;;
22336;SDS011;14992;50.844;4.418;2022-07-10T13:34:49;5.88;;;1.60;;
22336;SDS011;14992;50.844;4.418;2022-07-10T13:37:30;12.68;;;1.55;;
22336;SDS011;14992;50.844;4.418;2022-07-10T13:40:18;4.90;;;1.63;;
22336;SDS011;14992;50.844;4.418;2022-07-10T13:43:13;5.70;;;1.70;;
22336;SDS011;14992;50.844;4.418;2022-07-10T13:46:01;5.15;;;1.23;;
22336;SDS011;14992;50.844;4.418;2022-07-10T13:48:57;3.60;;;1.17;;
22336;SDS011;14992;50.844;4.418;2022-07-10T13:51:38;3.45;;;1.40;;
22336;SDS011;14992;50.844;4.418;2022-07-10T13:54:34;6.38;;;1.35;;
22336;SDS011;14992;50.844;4.418;2022-07-10T13:57:29;3.92;;;1.40;;
22336;SDS011;14992;50.844;4.418;2022-07-10T14:00:24;5.32;;;1.25;;
22336;SDS011;14992;50.844;4.418;2022-07-10T14:03:21;6.03;;;1.65;;
22336;SDS011;14992;50.844;4.418;2022-07-10T14:06:03;7.43;;;1.77;;
22336;SDS011;14992;50.844;4.418;2022-07-10T14:08:59;6.72;;;1.52;;
22336;SDS011;14992;50.844;4.418;2022-07-10T14:11:40;6.03;;;1.35;;
22336;SDS011;14992;50.844;4.418;2022-07-10T14:14:36;6.90;;;1.50;;
22336;SDS011;14992;50.844;4.418;2022-07-10T14:17:17;6.32;;;1.38;;
22336;SDS011;14992;50.844;4.418;2022-07-10T14:20:13;5.68;;;1.13;;
22336;SDS011;14992;50.844;4.418;2022-07-10T14:22:55;6.32;;;2.30;;
22336;SDS011;14992;50.844;4.418;2022-07-10T14:25:45;4.30;;;1.40;;
22336;SDS011;14992;50.844;4.418;2022-07-10T14:28:27;8.38;;;1.60;;
22336;SDS011;14992;50.844;4.418;2022-07-10T14:31:16;5.18;;;1.45;;
22336;SDS011;14992;50.844;4.418;2022-07-10T14:33:57;4.65;;;1.40;;
22336;SDS011;14992;50.844;4.418;2022-07-10T14:36:47;6.22;;;1.27;;
22336;SDS011;14992;50.844;4.418;2022-07-10T14:39:33;3.85;;;0.95;;
22336;SDS011;14992;50.844;4.418;2022-07-10T14:42:23;5.93;;;1.52;;
22336;SDS011;14992;50.844;4.418;2022-07-10T14:45:18;4.03;;;1.40;;
22336;SDS011;14992;50.844;4.418;2022-07-10T14:48:19;6.18;;;1.20;;
22336;SDS011;14992;50.844;4.418;2022-07-10T14:51:08;5.10;;;1.25;;
22336;SDS011;14992;50.844;4.418;2022-07-10T14:53:57;3.78;;;1.20;;
22336;SDS011;14992;50.844;4.418;2022-07-10T14:56:52;6.05;;;1.60;;
22336;SDS011;14992;50.844;4.418;2022-07-10T14:59:47;4.38;;;1.25;;
22336;SDS011;14992;50.844;4.418;2022-07-10T15:02:28;4.72;;;1.23;;
22336;SDS011;14992;50.844;4.418;2022-07-10T15:05:23;5.18;;;1.30;;
22336;SDS011;14992;50.844;4.418;2022-07-10T15:08:07;5.47;;;1.40;;
22336;SDS011;14992;50.844;4.418;2022-07-10T15:11:00;5.60;;;1.02;;
22336;SDS011;14992;50.844;4.418;2022-07-10T15:13:42;10.73;;;1.38;;
22336;SDS011;14992;50.844;4.418;2022-07-10T15:16:38;8.60;;;1.35;;
22336;SDS011;14992;50.844;4.418;2022-07-10T15:19:19;4.85;;;1.38;;
22336;SDS011;14992;50.844;4.418;2022-07-10T15:22:08;8.13;;;1.27;;
22336;SDS011;14992;50.844;4.418;2022-07-10T15:24:51;6.07;;;1.20;;
22336;SDS011;14992;50.844;4.418;2022-07-10T15:27:41;3.45;;;1.20;;
22336;SDS011;14992;50.844;4.418;2022-07-10T15:30:23;5.75;;;1.20;;
22336;SDS011;14992;50.844;4.418;2022-07-10T15:33:18;4.15;;;1.30;;
22336;SDS011;14992;50.844;4.418;2022-07-10T15:35:53;5.70;;;1.40;;
22336;SDS011;14992;50.844;4.418;2022-07-10T15:38:48;4.93;;;1.30;;
22336;SDS011;14992;50.844;4.418;2022-07-10T15:41:29;5.60;;;1.10;;
22336;SDS011;14992;50.844;4.418;2022-07-10T15:47:01;4.68;;;1.25;;
22336;SDS011;14992;50.844;4.418;2022-07-10T15:49:51;4.05;;;1.20;;
22336;SDS011;14992;50.844;4.418;2022-07-10T15:52:39;7.60;;;1.40;;
22336;SDS011;14992;50.844;4.418;2022-07-10T15:55:34;5.00;;;1.20;;
22336;SDS011;14992;50.844;4.418;2022-07-10T15:58:29;4.38;;;1.23;;
22336;SDS011;14992;50.844;4.418;2022-07-10T16:01:11;5.60;;;1.13;;
22336;SDS011;14992;50.844;4.418;2022-07-10T16:04:07;5.50;;;1.42;;
22336;SDS011;14992;50.844;4.418;2022-07-10T16:06:48;2.15;;;1.08;;
22336;SDS011;14992;50.844;4.418;2022-07-10T16:09:44;5.53;;;1.00;;
22336;SDS011;14992;50.844;4.418;2022-07-10T16:12:32;4.25;;;1.30;;
22336;SDS011;14992;50.844;4.418;2022-07-10T16:15:27;4.47;;;1.20;;
22336;SDS011;14992;50.844;4.418;2022-07-10T16:18:09;6.07;;;1.20;;
22336;SDS011;14992;50.844;4.418;2022-07-10T16:20:58;6.78;;;1.63;;
22336;SDS011;14992;50.844;4.418;2022-07-10T16:23:44;4.18;;;1.25;;
22336;SDS011;14992;50.844;4.418;2022-07-10T16:26:33;5.53;;;1.30;;
22336;SDS011;14992;50.844;4.418;2022-07-10T16:29:21;4.65;;;1.30;;
22336;SDS011;14992;50.844;4.418;2022-07-10T16:32:12;3.40;;;1.00;;
22336;SDS011;14992;50.844;4.418;2022-07-10T16:34:54;4.88;;;1.38;;
22336;SDS011;14992;50.844;4.418;2022-07-10T16:37:39;5.05;;;1.20;;
22336;SDS011;14992;50.844;4.418;2022-07-10T16:40:34;6.78;;;1.38;;
22336;SDS011;14992;50.844;4.418;2022-07-10T16:43:16;6.13;;;1.60;;
22336;SDS011;14992;50.844;4.418;2022-07-10T16:46:05;3.83;;;1.17;;
22336;SDS011;14992;50.844;4.418;2022-07-10T16:48:46;4.65;;;1.58;;
22336;SDS011;14992;50.844;4.418;2022-07-10T16:51:36;4.85;;;1.40;;
22336;SDS011;14992;50.844;4.418;2022-07-10T16:54:25;4.82;;;1.25;;
22336;SDS011;14992;50.844;4.418;2022-07-10T16:57:20;4.80;;;1.45;;
22336;SDS011;14992;50.844;4.418;2022-07-10T17:00:01;2.92;;;1.10;;
22336;SDS011;14992;50.844;4.418;2022-07-10T17:02:57;2.83;;;0.98;;